sensor_id;sensor_type;location;lat;lon;timestamp;temperature;humidity
8436;DHT22;4255;48.730;9.156;2023-10-19T00:02:05;12.80;99.90
8436;DHT22;4255;48.730;9.156;2023-10-19T00:04:31;12.80;99.90
8436;DHT22;4255;48.730;9.156;2023-10-19T00:06:58;12.90;99.90
8436;DHT22;4255;48.730;9.156;2023-10-19T00:09:24;13.00;99.90
8436;DHT22;4255;48.730;9.156;2023-10-19T00:11:50;13.00;99.90
8436;DHT22;4255;48.730;9.156;2023-10-19T00:14:18;13.00;99.90
8436;DHT22;4255;48.730;9.156;2023-10-19T00:16:44;12.80;99.90
8436;DHT22;4255;48.730;9.156;2023-10-19T00:19:19;13.00;99.90
8436;DHT22;4255;48.730;9.156;2023-10-19T00:21:47;12.90;99.90
8436;DHT22;4255;48.730;9.156;2023-10-19T00:24:17;13.00;99.90
8436;DHT22;4255;48.730;9.156;2023-10-19T00:26:45;12.90;99.90
8436;DHT22;4255;48.730;9.156;2023-10-19T00:29:10;12.90;99.90
8436;DHT22;4255;48.730;9.156;2023-10-19T00:31:54;13.00;99.90
8436;DHT22;4255;48.730;9.156;2023-10-19T00:34:21;13.10;99.90
8436;DHT22;4255;48.730;9.156;2023-10-19T00:36:47;13.00;99.90
8436;DHT22;4255;48.730;9.156;2023-10-19T00:39:13;13.00;99.90
8436;DHT22;4255;48.730;9.156;2023-10-19T00:42:02;13.20;99.90
8436;DHT22;4255;48.730;9.156;2023-10-19T00:44:28;13.10;99.90
8436;DHT22;4255;48.730;9.156;2023-10-19T00:47:03;13.10;99.90
8436;DHT22;4255;48.730;9.156;2023-10-19T00:49:33;13.20;99.90
8436;DHT22;4255;48.730;9.156;2023-10-19T00:52:00;13.20;99.90
8436;DHT22;4255;48.730;9.156;2023-10-19T00:54:39;13.40;99.90
8436;DHT22;4255;48.730;9.156;2023-10-19T00:57:17;13.40;99.90
8436;DHT22;4255;48.730;9.156;2023-10-19T00:59:46;13.40;99.90
8436;DHT22;4255;48.730;9.156;2023-10-19T01:02:26;13.30;99.90
8436;DHT22;4255;48.730;9.156;2023-10-19T01:04:53;13.30;99.90
8436;DHT22;4255;48.730;9.156;2023-10-19T01:07:27;13.40;99.90
8436;DHT22;4255;48.730;9.156;2023-10-19T01:09:58;13.50;99.90
8436;DHT22;4255;48.730;9.156;2023-10-19T01:12:25;13.70;99.90
8436;DHT22;4255;48.730;9.156;2023-10-19T01:15:12;13.80;99.90
8436;DHT22;4255;48.730;9.156;2023-10-19T01:17:41;13.90;99.90
8436;DHT22;4255;48.730;9.156;2023-10-19T01:20:14;13.90;99.90
8436;DHT22;4255;48.730;9.156;2023-10-19T01:25:51;13.90;99.90
8436;DHT22;4255;48.730;9.156;2023-10-19T01:28:27;13.90;99.90
8436;DHT22;4255;48.730;9.156;2023-10-19T01:31:17;13.80;99.90
8436;DHT22;4255;48.730;9.156;2023-10-19T01:33:48;13.70;99.90
8436;DHT22;4255;48.730;9.156;2023-10-19T01:36:14;13.60;99.90
8436;DHT22;4255;48.730;9.156;2023-10-19T01:38:41;13.70;99.90
8436;DHT22;4255;48.730;9.156;2023-10-19T01:41:08;13.80;99.90
8436;DHT22;4255;48.730;9.156;2023-10-19T01:43:41;13.90;99.90
8436;DHT22;4255;48.730;9.156;2023-10-19T01:46:08;13.90;99.90
8436;DHT22;4255;48.730;9.156;2023-10-19T01:48:38;14.00;99.90
8436;DHT22;4255;48.730;9.156;2023-10-19T01:51:08;14.10;99.90
8436;DHT22;4255;48.730;9.156;2023-10-19T01:53:38;14.10;99.90
8436;DHT22;4255;48.730;9.156;2023-10-19T01:56:11;14.10;99.90
8436;DHT22;4255;48.730;9.156;2023-10-19T01:58:38;14.20;99.90
8436;DHT22;4255;48.730;9.156;2023-10-19T02:01:06;14.30;99.90
8436;DHT22;4255;48.730;9.156;2023-10-19T02:03:42;14.30;99.90
8436;DHT22;4255;48.730;9.156;2023-10-19T02:06:12;14.30;99.90
8436;DHT22;4255;48.730;9.156;2023-10-19T02:09:07;14.30;99.90
8436;DHT22;4255;48.730;9.156;2023-10-19T02:11:51;14.30;99.90
8436;DHT22;4255;48.730;9.156;2023-10-19T02:14:19;14.50;99.90
8436;DHT22;4255;48.730;9.156;2023-10-19T02:16:49;14.50;99.90
8436;DHT22;4255;48.730;9.156;2023-10-19T02:19:18;14.60;99.90
8436;DHT22;4255;48.730;9.156;2023-10-19T02:21:47;14.60;99.90
8436;DHT22;4255;48.730;9.156;2023-10-19T02:24:13;14.50;99.90
8436;DHT22;4255;48.730;9.156;2023-10-19T02:26:43;14.60;99.90
8436;DHT22;4255;48.730;9.156;2023-10-19T02:29:10;14.50;99.90
8436;DHT22;4255;48.730;9.156;2023-10-19T02:31:36;14.60;99.90
8436;DHT22;4255;48.730;9.156;2023-10-19T02:34:06;14.60;99.90
8436;DHT22;4255;48.730;9.156;2023-10-19T02:36:36;14.70;99.90
8436;DHT22;4255;48.730;9.156;2023-10-19T02:39:08;14.70;99.90
8436;DHT22;4255;48.730;9.156;2023-10-19T02:41:39;14.70;99.90
8436;DHT22;4255;48.730;9.156;2023-10-19T02:44:10;14.60;99.90
8436;DHT22;4255;48.730;9.156;2023-10-19T02:46:42;14.60;99.90
8436;DHT22;4255;48.730;9.156;2023-10-19T02:49:09;14.50;99.90
8436;DHT22;4255;48.730;9.156;2023-10-19T02:51:40;14.60;99.90
8436;DHT22;4255;48.730;9.156;2023-10-19T02:54:07;14.50;99.90
8436;DHT22;4255;48.730;9.156;2023-10-19T02:56:33;14.30;99.90
8436;DHT22;4255;48.730;9.156;2023-10-19T02:59:02;14.40;99.90
8436;DHT22;4255;48.730;9.156;2023-10-19T03:01:29;14.40;99.90
8436;DHT22;4255;48.730;9.156;2023-10-19T03:03:57;14.50;99.90
8436;DHT22;4255;48.730;9.156;2023-10-19T03:06:26;14.50;99.90
8436;DHT22;4255;48.730;9.156;2023-10-19T03:08:56;14.50;99.90
8436;DHT22;4255;48.730;9.156;2023-10-19T03:11:30;14.40;99.90
8436;DHT22;4255;48.730;9.156;2023-10-19T03:13:58;14.40;99.90
8436;DHT22;4255;48.730;9.156;2023-10-19T03:16:23;14.40;99.90
8436;DHT22;4255;48.730;9.156;2023-10-19T03:18:50;14.30;99.90
8436;DHT22;4255;48.730;9.156;2023-10-19T03:21:19;14.30;99.90
8436;DHT22;4255;48.730;9.156;2023-10-19T03:23:49;14.40;99.90
8436;DHT22;4255;48.730;9.156;2023-10-19T03:26:15;14.30;99.90
8436;DHT22;4255;48.730;9.156;2023-10-19T03:28:49;14.30;99.90
8436;DHT22;4255;48.730;9.156;2023-10-19T03:31:21;14.10;99.90
8436;DHT22;4255;48.730;9.156;2023-10-19T03:33:48;14.10;99.90
8436;DHT22;4255;48.730;9.156;2023-10-19T03:36:20;14.10;99.90
8436;DHT22;4255;48.730;9.156;2023-10-19T03:38:45;14.10;99.90
8436;DHT22;4255;48.730;9.156;2023-10-19T03:41:11;14.10;99.90
8436;DHT22;4255;48.730;9.156;2023-10-19T03:43:37;14.20;99.90
8436;DHT22;4255;48.730;9.156;2023-10-19T03:46:06;14.30;99.90
8436;DHT22;4255;48.730;9.156;2023-10-19T03:48:50;14.20;99.90
8436;DHT22;4255;48.730;9.156;2023-10-19T03:51:16;14.00;99.90
8436;DHT22;4255;48.730;9.156;2023-10-19T03:53:43;13.90;99.90
8436;DHT22;4255;48.730;9.156;2023-10-19T03:56:19;13.90;99.90
8436;DHT22;4255;48.730;9.156;2023-10-19T03:58:46;13.90;99.90
8436;DHT22;4255;48.730;9.156;2023-10-19T04:01:13;13.90;99.90
8436;DHT22;4255;48.730;9.156;2023-10-19T04:03:42;14.00;99.90
8436;DHT22;4255;48.730;9.156;2023-10-19T04:06:09;13.90;99.90
8436;DHT22;4255;48.730;9.156;2023-10-19T04:08:40;14.00;99.90
8436;DHT22;4255;48.730;9.156;2023-10-19T04:11:05;14.10;99.90
8436;DHT22;4255;48.730;9.156;2023-10-19T04:13:34;14.20;99.90
8436;DHT22;4255;48.730;9.156;2023-10-19T04:16:03;14.40;99.90
8436;DHT22;4255;48.730;9.156;2023-10-19T04:18:29;14.30;99.90
8436;DHT22;4255;48.730;9.156;2023-10-19T04:20:54;14.40;99.90
8436;DHT22;4255;48.730;9.156;2023-10-19T04:23:24;14.40;99.90
8436;DHT22;4255;48.730;9.156;2023-10-19T04:25:53;14.50;99.90
8436;DHT22;4255;48.730;9.156;2023-10-19T04:28:22;14.50;99.90
8436;DHT22;4255;48.730;9.156;2023-10-19T04:30:57;14.60;99.90
8436;DHT22;4255;48.730;9.156;2023-10-19T04:33:31;14.80;99.90
8436;DHT22;4255;48.730;9.156;2023-10-19T04:35:57;14.90;99.90
8436;DHT22;4255;48.730;9.156;2023-10-19T04:38:26;15.00;99.90
8436;DHT22;4255;48.730;9.156;2023-10-19T04:40:52;15.10;99.90
8436;DHT22;4255;48.730;9.156;2023-10-19T04:43:17;15.00;99.90
8436;DHT22;4255;48.730;9.156;2023-10-19T04:45:43;15.00;99.90
8436;DHT22;4255;48.730;9.156;2023-10-19T04:48:11;14.80;99.90
8436;DHT22;4255;48.730;9.156;2023-10-19T04:50:37;14.50;99.90
8436;DHT22;4255;48.730;9.156;2023-10-19T04:53:03;14.40;99.90
8436;DHT22;4255;48.730;9.156;2023-10-19T04:55:30;14.30;99.90
8436;DHT22;4255;48.730;9.156;2023-10-19T04:57:56;14.30;99.90
8436;DHT22;4255;48.730;9.156;2023-10-19T05:00:22;14.10;99.90
8436;DHT22;4255;48.730;9.156;2023-10-19T05:02:50;14.10;99.90
8436;DHT22;4255;48.730;9.156;2023-10-19T05:05:17;14.30;99.90
8436;DHT22;4255;48.730;9.156;2023-10-19T05:07:43;14.10;99.90
8436;DHT22;4255;48.730;9.156;2023-10-19T05:10:09;14.10;99.90
8436;DHT22;4255;48.730;9.156;2023-10-19T05:12:35;14.20;99.90
8436;DHT22;4255;48.730;9.156;2023-10-19T05:15:00;14.20;99.90
8436;DHT22;4255;48.730;9.156;2023-10-19T05:17:26;14.20;99.90
8436;DHT22;4255;48.730;9.156;2023-10-19T05:19:52;14.40;99.90
8436;DHT22;4255;48.730;9.156;2023-10-19T05:22:18;14.30;99.90
8436;DHT22;4255;48.730;9.156;2023-10-19T05:24:44;14.50;99.90
8436;DHT22;4255;48.730;9.156;2023-10-19T05:27:09;14.50;99.90
8436;DHT22;4255;48.730;9.156;2023-10-19T05:29:35;14.40;99.90
8436;DHT22;4255;48.730;9.156;2023-10-19T05:32:01;14.50;99.90
8436;DHT22;4255;48.730;9.156;2023-10-19T05:34:29;14.40;99.90
8436;DHT22;4255;48.730;9.156;2023-10-19T05:37:01;14.40;99.90
8436;DHT22;4255;48.730;9.156;2023-10-19T05:39:28;14.30;99.90
8436;DHT22;4255;48.730;9.156;2023-10-19T05:41:57;14.40;99.90
8436;DHT22;4255;48.730;9.156;2023-10-19T05:44:29;14.50;99.90
8436;DHT22;4255;48.730;9.156;2023-10-19T05:46:56;14.60;99.90
8436;DHT22;4255;48.730;9.156;2023-10-19T05:49:22;14.60;99.90
8436;DHT22;4255;48.730;9.156;2023-10-19T05:51:49;14.50;99.90
8436;DHT22;4255;48.730;9.156;2023-10-19T05:54:15;14.50;99.90
8436;DHT22;4255;48.730;9.156;2023-10-19T05:56:42;14.40;99.90
8436;DHT22;4255;48.730;9.156;2023-10-19T05:59:08;14.40;99.90
8436;DHT22;4255;48.730;9.156;2023-10-19T06:01:35;14.40;99.90
8436;DHT22;4255;48.730;9.156;2023-10-19T06:04:02;14.50;99.90
8436;DHT22;4255;48.730;9.156;2023-10-19T06:06:28;14.40;99.90
8436;DHT22;4255;48.730;9.156;2023-10-19T06:08:54;14.50;99.90
8436;DHT22;4255;48.730;9.156;2023-10-19T06:11:20;14.50;99.90
8436;DHT22;4255;48.730;9.156;2023-10-19T06:13:46;14.60;99.90
8436;DHT22;4255;48.730;9.156;2023-10-19T06:16:12;14.70;99.90
8436;DHT22;4255;48.730;9.156;2023-10-19T06:18:37;14.70;99.90
8436;DHT22;4255;48.730;9.156;2023-10-19T06:21:03;14.80;99.90
8436;DHT22;4255;48.730;9.156;2023-10-19T06:23:29;14.90;99.90
8436;DHT22;4255;48.730;9.156;2023-10-19T06:25:56;15.00;99.90
8436;DHT22;4255;48.730;9.156;2023-10-19T06:28:22;15.10;99.90
8436;DHT22;4255;48.730;9.156;2023-10-19T06:30:48;15.20;99.90
8436;DHT22;4255;48.730;9.156;2023-10-19T06:33:13;15.20;99.90
8436;DHT22;4255;48.730;9.156;2023-10-19T06:35:39;15.30;99.90
8436;DHT22;4255;48.730;9.156;2023-10-19T06:38:05;15.30;99.90
8436;DHT22;4255;48.730;9.156;2023-10-19T06:40:34;15.40;99.90
8436;DHT22;4255;48.730;9.156;2023-10-19T06:43:03;15.40;99.90
8436;DHT22;4255;48.730;9.156;2023-10-19T06:45:30;15.40;99.90
8436;DHT22;4255;48.730;9.156;2023-10-19T06:47:56;15.50;99.90
8436;DHT22;4255;48.730;9.156;2023-10-19T06:50:24;15.60;99.90
8436;DHT22;4255;48.730;9.156;2023-10-19T06:52:51;15.60;99.90
8436;DHT22;4255;48.730;9.156;2023-10-19T06:55:18;15.60;99.90
8436;DHT22;4255;48.730;9.156;2023-10-19T06:57:53;15.70;99.90
8436;DHT22;4255;48.730;9.156;2023-10-19T07:00:23;15.80;99.90
8436;DHT22;4255;48.730;9.156;2023-10-19T07:02:52;15.90;99.90
8436;DHT22;4255;48.730;9.156;2023-10-19T07:05:19;16.10;99.90
8436;DHT22;4255;48.730;9.156;2023-10-19T07:07:50;16.20;99.90
8436;DHT22;4255;48.730;9.156;2023-10-19T07:10:17;16.20;99.90
8436;DHT22;4255;48.730;9.156;2023-10-19T07:12:48;16.20;99.90
8436;DHT22;4255;48.730;9.156;2023-10-19T07:15:16;16.30;99.90
8436;DHT22;4255;48.730;9.156;2023-10-19T07:17:45;16.40;99.90
8436;DHT22;4255;48.730;9.156;2023-10-19T07:20:12;16.40;99.90
8436;DHT22;4255;48.730;9.156;2023-10-19T07:22:56;16.50;99.90
8436;DHT22;4255;48.730;9.156;2023-10-19T07:25:23;16.50;99.90
8436;DHT22;4255;48.730;9.156;2023-10-19T07:27:51;16.60;99.90
8436;DHT22;4255;48.730;9.156;2023-10-19T07:30:18;16.60;99.90
8436;DHT22;4255;48.730;9.156;2023-10-19T07:32:50;16.60;99.90
8436;DHT22;4255;48.730;9.156;2023-10-19T07:35:20;16.60;99.90
8436;DHT22;4255;48.730;9.156;2023-10-19T07:37:46;16.60;99.90
8436;DHT22;4255;48.730;9.156;2023-10-19T07:40:14;16.80;99.90
8436;DHT22;4255;48.730;9.156;2023-10-19T07:42:42;16.90;99.90
8436;DHT22;4255;48.730;9.156;2023-10-19T07:45:08;17.00;99.90
8436;DHT22;4255;48.730;9.156;2023-10-19T07:47:38;17.10;99.90
8436;DHT22;4255;48.730;9.156;2023-10-19T07:50:09;17.20;99.90
8436;DHT22;4255;48.730;9.156;2023-10-19T07:52:42;17.30;99.90
8436;DHT22;4255;48.730;9.156;2023-10-19T07:55:09;17.30;99.90
8436;DHT22;4255;48.730;9.156;2023-10-19T07:57:35;17.50;99.90
8436;DHT22;4255;48.730;9.156;2023-10-19T08:00:00;17.60;99.90
8436;DHT22;4255;48.730;9.156;2023-10-19T08:02:26;17.50;99.90
8436;DHT22;4255;48.730;9.156;2023-10-19T08:04:52;17.60;99.90
8436;DHT22;4255;48.730;9.156;2023-10-19T08:07:18;17.70;99.90
8436;DHT22;4255;48.730;9.156;2023-10-19T08:09:44;17.80;99.90
8436;DHT22;4255;48.730;9.156;2023-10-19T08:12:10;17.80;99.90
8436;DHT22;4255;48.730;9.156;2023-10-19T08:14:39;17.90;99.90
8436;DHT22;4255;48.730;9.156;2023-10-19T08:17:05;17.90;99.90
8436;DHT22;4255;48.730;9.156;2023-10-19T08:19:31;17.80;99.90
8436;DHT22;4255;48.730;9.156;2023-10-19T08:21:57;17.60;99.90
8436;DHT22;4255;48.730;9.156;2023-10-19T08:24:23;17.60;99.90
8436;DHT22;4255;48.730;9.156;2023-10-19T08:26:49;17.30;99.90
8436;DHT22;4255;48.730;9.156;2023-10-19T08:29:16;17.00;99.90
8436;DHT22;4255;48.730;9.156;2023-10-19T08:31:43;16.90;99.90
8436;DHT22;4255;48.730;9.156;2023-10-19T08:34:11;17.00;99.90
8436;DHT22;4255;48.730;9.156;2023-10-19T08:36:37;17.10;99.90
8436;DHT22;4255;48.730;9.156;2023-10-19T08:39:07;17.30;99.90
8436;DHT22;4255;48.730;9.156;2023-10-19T08:41:35;17.60;99.90
8436;DHT22;4255;48.730;9.156;2023-10-19T08:44:09;17.80;99.90
8436;DHT22;4255;48.730;9.156;2023-10-19T08:46:42;18.10;99.90
8436;DHT22;4255;48.730;9.156;2023-10-19T08:49:14;18.30;99.90
8436;DHT22;4255;48.730;9.156;2023-10-19T08:51:44;18.40;99.90
8436;DHT22;4255;48.730;9.156;2023-10-19T08:54:11;18.50;99.90
8436;DHT22;4255;48.730;9.156;2023-10-19T08:56:38;18.50;99.90
8436;DHT22;4255;48.730;9.156;2023-10-19T08:59:04;18.40;99.90
8436;DHT22;4255;48.730;9.156;2023-10-19T09:01:31;18.50;99.90
8436;DHT22;4255;48.730;9.156;2023-10-19T09:04:01;18.60;99.90
8436;DHT22;4255;48.730;9.156;2023-10-19T09:06:27;18.70;99.90
8436;DHT22;4255;48.730;9.156;2023-10-19T09:08:56;18.70;99.90
8436;DHT22;4255;48.730;9.156;2023-10-19T09:11:23;18.90;99.90
8436;DHT22;4255;48.730;9.156;2023-10-19T09:13:51;19.10;99.90
8436;DHT22;4255;48.730;9.156;2023-10-19T09:16:21;18.90;99.90
8436;DHT22;4255;48.730;9.156;2023-10-19T09:18:47;19.00;99.90
8436;DHT22;4255;48.730;9.156;2023-10-19T09:21:20;19.10;99.90
8436;DHT22;4255;48.730;9.156;2023-10-19T09:23:53;19.30;99.90
8436;DHT22;4255;48.730;9.156;2023-10-19T09:26:20;19.30;99.90
8436;DHT22;4255;48.730;9.156;2023-10-19T09:28:51;19.30;99.90
8436;DHT22;4255;48.730;9.156;2023-10-19T09:31:17;19.40;99.90
8436;DHT22;4255;48.730;9.156;2023-10-19T09:33:45;19.40;99.90
8436;DHT22;4255;48.730;9.156;2023-10-19T09:36:11;19.50;99.90
8436;DHT22;4255;48.730;9.156;2023-10-19T09:38:50;19.80;99.90
8436;DHT22;4255;48.730;9.156;2023-10-19T09:41:23;19.60;99.90
8436;DHT22;4255;48.730;9.156;2023-10-19T09:43:58;19.50;99.90
8436;DHT22;4255;48.730;9.156;2023-10-19T09:46:32;19.50;99.90
8436;DHT22;4255;48.730;9.156;2023-10-19T09:48:57;19.40;99.90
8436;DHT22;4255;48.730;9.156;2023-10-19T09:51:24;19.50;99.90
8436;DHT22;4255;48.730;9.156;2023-10-19T09:54:23;19.50;99.90
8436;DHT22;4255;48.730;9.156;2023-10-19T09:57:00;19.70;99.90
8436;DHT22;4255;48.730;9.156;2023-10-19T09:59:36;19.80;99.90
8436;DHT22;4255;48.730;9.156;2023-10-19T10:04:32;19.70;99.90
8436;DHT22;4255;48.730;9.156;2023-10-19T10:06:58;19.80;99.90
8436;DHT22;4255;48.730;9.156;2023-10-19T10:09:26;19.70;99.90
8436;DHT22;4255;48.730;9.156;2023-10-19T10:11:52;19.60;99.90
8436;DHT22;4255;48.730;9.156;2023-10-19T10:14:25;19.50;99.90
8436;DHT22;4255;48.730;9.156;2023-10-19T10:17:03;19.40;99.90
8436;DHT22;4255;48.730;9.156;2023-10-19T10:19:30;19.40;99.90
8436;DHT22;4255;48.730;9.156;2023-10-19T10:22:10;19.40;99.90
8436;DHT22;4255;48.730;9.156;2023-10-19T10:24:44;19.40;99.90
8436;DHT22;4255;48.730;9.156;2023-10-19T10:27:10;19.30;99.90
8436;DHT22;4255;48.730;9.156;2023-10-19T10:29:57;19.30;99.90
8436;DHT22;4255;48.730;9.156;2023-10-19T10:32:46;19.40;99.90
8436;DHT22;4255;48.730;9.156;2023-10-19T10:38:07;19.30;99.90
8436;DHT22;4255;48.730;9.156;2023-10-19T10:40:49;19.30;99.90
8436;DHT22;4255;48.730;9.156;2023-10-19T10:43:16;19.40;99.90
8436;DHT22;4255;48.730;9.156;2023-10-19T10:45:42;19.40;99.90
8436;DHT22;4255;48.730;9.156;2023-10-19T10:48:15;19.40;99.90
8436;DHT22;4255;48.730;9.156;2023-10-19T10:50:41;19.30;99.90
8436;DHT22;4255;48.730;9.156;2023-10-19T10:53:08;19.10;99.90
8436;DHT22;4255;48.730;9.156;2023-10-19T10:55:34;19.20;99.90
8436;DHT22;4255;48.730;9.156;2023-10-19T10:58:00;19.10;99.90
8436;DHT22;4255;48.730;9.156;2023-10-19T11:00:26;19.30;99.90
8436;DHT22;4255;48.730;9.156;2023-10-19T11:03:04;19.40;99.90
8436;DHT22;4255;48.730;9.156;2023-10-19T11:05:32;19.30;99.90
8436;DHT22;4255;48.730;9.156;2023-10-19T11:10:33;19.30;99.90
8436;DHT22;4255;48.730;9.156;2023-10-19T11:13:06;19.20;99.90
8436;DHT22;4255;48.730;9.156;2023-10-19T11:15:33;19.10;99.90
8436;DHT22;4255;48.730;9.156;2023-10-19T11:17:59;19.10;99.90
8436;DHT22;4255;48.730;9.156;2023-10-19T11:20:25;18.90;99.90
8436;DHT22;4255;48.730;9.156;2023-10-19T11:22:53;18.70;99.90
8436;DHT22;4255;48.730;9.156;2023-10-19T11:25:23;18.50;99.90
8436;DHT22;4255;48.730;9.156;2023-10-19T11:27:49;18.30;99.90
8436;DHT22;4255;48.730;9.156;2023-10-19T11:30:25;18.10;99.90
8436;DHT22;4255;48.730;9.156;2023-10-19T11:32:52;18.20;99.90
8436;DHT22;4255;48.730;9.156;2023-10-19T11:35:19;18.10;99.90
8436;DHT22;4255;48.730;9.156;2023-10-19T11:40:11;18.10;99.90
8436;DHT22;4255;48.730;9.156;2023-10-19T11:42:37;18.10;99.90
8436;DHT22;4255;48.730;9.156;2023-10-19T11:45:03;18.10;99.90
8436;DHT22;4255;48.730;9.156;2023-10-19T11:47:28;18.20;99.90
8436;DHT22;4255;48.730;9.156;2023-10-19T11:49:54;18.40;99.90
8436;DHT22;4255;48.730;9.156;2023-10-19T11:52:20;18.50;99.90
8436;DHT22;4255;48.730;9.156;2023-10-19T11:54:45;18.40;99.90
8436;DHT22;4255;48.730;9.156;2023-10-19T11:57:11;18.40;99.90
8436;DHT22;4255;48.730;9.156;2023-10-19T11:59:37;18.50;99.90
8436;DHT22;4255;48.730;9.156;2023-10-19T12:02:03;18.60;99.90
8436;DHT22;4255;48.730;9.156;2023-10-19T12:04:29;18.70;99.90
8436;DHT22;4255;48.730;9.156;2023-10-19T12:06:55;18.70;99.90
8436;DHT22;4255;48.730;9.156;2023-10-19T12:09:20;18.70;99.90
8436;DHT22;4255;48.730;9.156;2023-10-19T12:11:50;18.70;99.90
8436;DHT22;4255;48.730;9.156;2023-10-19T12:14:18;18.70;99.90
8436;DHT22;4255;48.730;9.156;2023-10-19T12:16:44;18.70;99.90
8436;DHT22;4255;48.730;9.156;2023-10-19T12:19:10;18.50;99.90
8436;DHT22;4255;48.730;9.156;2023-10-19T12:21:36;18.40;99.90
8436;DHT22;4255;48.730;9.156;2023-10-19T12:24:03;18.20;99.90
8436;DHT22;4255;48.730;9.156;2023-10-19T12:26:30;17.90;99.90
8436;DHT22;4255;48.730;9.156;2023-10-19T12:28:56;17.80;99.90
8436;DHT22;4255;48.730;9.156;2023-10-19T12:31:22;17.60;99.90
8436;DHT22;4255;48.730;9.156;2023-10-19T12:33:48;17.60;99.90
8436;DHT22;4255;48.730;9.156;2023-10-19T12:36:14;17.40;99.90
8436;DHT22;4255;48.730;9.156;2023-10-19T12:38:52;17.30;99.90
8436;DHT22;4255;48.730;9.156;2023-10-19T12:41:20;17.40;99.90
8436;DHT22;4255;48.730;9.156;2023-10-19T12:43:46;17.50;99.90
8436;DHT22;4255;48.730;9.156;2023-10-19T12:46:13;17.50;99.90
8436;DHT22;4255;48.730;9.156;2023-10-19T12:48:40;17.60;99.90
8436;DHT22;4255;48.730;9.156;2023-10-19T12:51:05;17.80;99.90
8436;DHT22;4255;48.730;9.156;2023-10-19T12:53:37;17.70;99.90
8436;DHT22;4255;48.730;9.156;2023-10-19T12:56:06;17.70;99.90
8436;DHT22;4255;48.730;9.156;2023-10-19T12:58:33;17.80;99.90
8436;DHT22;4255;48.730;9.156;2023-10-19T13:00:59;17.70;99.90
8436;DHT22;4255;48.730;9.156;2023-10-19T13:03:25;17.50;99.90
8436;DHT22;4255;48.730;9.156;2023-10-19T13:05:56;17.50;99.90
8436;DHT22;4255;48.730;9.156;2023-10-19T13:08:23;17.50;99.90
8436;DHT22;4255;48.730;9.156;2023-10-19T13:10:53;17.50;99.90
8436;DHT22;4255;48.730;9.156;2023-10-19T13:13:19;17.50;99.90
8436;DHT22;4255;48.730;9.156;2023-10-19T13:15:48;17.50;99.90
8436;DHT22;4255;48.730;9.156;2023-10-19T13:18:13;17.40;99.90
8436;DHT22;4255;48.730;9.156;2023-10-19T13:20:46;17.40;99.90
8436;DHT22;4255;48.730;9.156;2023-10-19T13:23:14;17.50;99.90
8436;DHT22;4255;48.730;9.156;2023-10-19T13:25:47;17.50;99.90
8436;DHT22;4255;48.730;9.156;2023-10-19T13:28:19;17.50;99.90
8436;DHT22;4255;48.730;9.156;2023-10-19T13:30:49;17.60;99.90
8436;DHT22;4255;48.730;9.156;2023-10-19T13:33:16;17.60;99.90
8436;DHT22;4255;48.730;9.156;2023-10-19T13:35:43;17.60;99.90
8436;DHT22;4255;48.730;9.156;2023-10-19T13:38:09;17.60;99.90
8436;DHT22;4255;48.730;9.156;2023-10-19T13:40:38;17.60;99.90
8436;DHT22;4255;48.730;9.156;2023-10-19T13:43:06;17.50;99.90
8436;DHT22;4255;48.730;9.156;2023-10-19T13:45:36;17.50;99.90
8436;DHT22;4255;48.730;9.156;2023-10-19T13:48:03;17.50;99.90
8436;DHT22;4255;48.730;9.156;2023-10-19T13:50:30;17.50;99.90
8436;DHT22;4255;48.730;9.156;2023-10-19T13:52:56;17.50;99.90
8436;DHT22;4255;48.730;9.156;2023-10-19T13:55:25;17.60;99.90
8436;DHT22;4255;48.730;9.156;2023-10-19T13:57:51;17.50;99.90
8436;DHT22;4255;48.730;9.156;2023-10-19T14:00:19;17.60;99.90
8436;DHT22;4255;48.730;9.156;2023-10-19T14:02:49;17.60;99.90
8436;DHT22;4255;48.730;9.156;2023-10-19T14:05:16;17.50;99.90
8436;DHT22;4255;48.730;9.156;2023-10-19T14:07:42;17.50;99.90
8436;DHT22;4255;48.730;9.156;2023-10-19T14:10:09;17.70;99.90
8436;DHT22;4255;48.730;9.156;2023-10-19T14:12:41;17.80;99.90
8436;DHT22;4255;48.730;9.156;2023-10-19T14:15:15;17.80;99.90
8436;DHT22;4255;48.730;9.156;2023-10-19T14:17:42;17.90;99.90
8436;DHT22;4255;48.730;9.156;2023-10-19T14:20:08;17.80;99.90
8436;DHT22;4255;48.730;9.156;2023-10-19T14:22:44;17.80;99.90
8436;DHT22;4255;48.730;9.156;2023-10-19T14:25:11;17.60;99.90
8436;DHT22;4255;48.730;9.156;2023-10-19T14:27:40;17.70;99.90
8436;DHT22;4255;48.730;9.156;2023-10-19T14:30:08;17.70;99.90
8436;DHT22;4255;48.730;9.156;2023-10-19T14:32:37;17.40;99.90
8436;DHT22;4255;48.730;9.156;2023-10-19T14:35:03;17.30;99.90
8436;DHT22;4255;48.730;9.156;2023-10-19T14:37:31;17.40;99.90
8436;DHT22;4255;48.730;9.156;2023-10-19T14:39:57;17.30;99.90
8436;DHT22;4255;48.730;9.156;2023-10-19T14:42:24;17.30;99.90
8436;DHT22;4255;48.730;9.156;2023-10-19T14:44:50;17.40;99.90
8436;DHT22;4255;48.730;9.156;2023-10-19T14:47:15;17.50;99.90
8436;DHT22;4255;48.730;9.156;2023-10-19T14:49:41;17.30;99.90
8436;DHT22;4255;48.730;9.156;2023-10-19T14:52:06;17.10;99.90
8436;DHT22;4255;48.730;9.156;2023-10-19T14:54:32;17.00;99.90
8436;DHT22;4255;48.730;9.156;2023-10-19T14:56:58;16.90;99.90
8436;DHT22;4255;48.730;9.156;2023-10-19T14:59:24;16.80;99.90
8436;DHT22;4255;48.730;9.156;2023-10-19T15:01:49;16.80;99.90
8436;DHT22;4255;48.730;9.156;2023-10-19T15:04:15;16.90;99.90
8436;DHT22;4255;48.730;9.156;2023-10-19T15:06:41;16.90;99.90
8436;DHT22;4255;48.730;9.156;2023-10-19T15:09:07;17.00;99.90
8436;DHT22;4255;48.730;9.156;2023-10-19T15:11:40;16.80;99.90
8436;DHT22;4255;48.730;9.156;2023-10-19T15:14:05;16.80;99.90
8436;DHT22;4255;48.730;9.156;2023-10-19T15:16:31;16.80;99.90
8436;DHT22;4255;48.730;9.156;2023-10-19T15:18:56;16.80;99.90
8436;DHT22;4255;48.730;9.156;2023-10-19T15:21:22;16.60;99.90
8436;DHT22;4255;48.730;9.156;2023-10-19T15:23:48;16.50;99.90
8436;DHT22;4255;48.730;9.156;2023-10-19T15:26:18;16.60;99.90
8436;DHT22;4255;48.730;9.156;2023-10-19T15:28:44;16.80;99.90
8436;DHT22;4255;48.730;9.156;2023-10-19T15:31:10;16.90;99.90
8436;DHT22;4255;48.730;9.156;2023-10-19T15:33:35;17.10;99.90
8436;DHT22;4255;48.730;9.156;2023-10-19T15:36:01;17.20;99.90
8436;DHT22;4255;48.730;9.156;2023-10-19T15:38:27;17.20;99.90
8436;DHT22;4255;48.730;9.156;2023-10-19T15:40:52;17.10;99.90
8436;DHT22;4255;48.730;9.156;2023-10-19T15:43:20;17.10;99.90
8436;DHT22;4255;48.730;9.156;2023-10-19T15:45:46;17.20;99.90
8436;DHT22;4255;48.730;9.156;2023-10-19T15:48:14;17.20;99.90
8436;DHT22;4255;48.730;9.156;2023-10-19T15:50:40;17.10;99.90
8436;DHT22;4255;48.730;9.156;2023-10-19T15:53:08;17.10;99.90
8436;DHT22;4255;48.730;9.156;2023-10-19T15:55:35;17.10;99.90
8436;DHT22;4255;48.730;9.156;2023-10-19T15:58:01;17.10;99.90
8436;DHT22;4255;48.730;9.156;2023-10-19T16:00:27;17.20;99.90
8436;DHT22;4255;48.730;9.156;2023-10-19T16:02:53;17.10;99.90
8436;DHT22;4255;48.730;9.156;2023-10-19T16:05:19;17.30;99.90
8436;DHT22;4255;48.730;9.156;2023-10-19T16:07:45;17.30;99.90
8436;DHT22;4255;48.730;9.156;2023-10-19T16:10:11;17.30;99.90
8436;DHT22;4255;48.730;9.156;2023-10-19T16:12:41;17.20;99.90
8436;DHT22;4255;48.730;9.156;2023-10-19T16:15:08;17.20;99.90
8436;DHT22;4255;48.730;9.156;2023-10-19T16:17:34;17.30;99.90
8436;DHT22;4255;48.730;9.156;2023-10-19T16:20:01;17.40;99.90
8436;DHT22;4255;48.730;9.156;2023-10-19T16:22:27;17.50;99.90
8436;DHT22;4255;48.730;9.156;2023-10-19T16:24:53;17.50;99.90